createdAt,value
2023-07-20T00:02:43.512Z,51.86
2023-07-20T00:05:47.241Z,52.25
2023-07-20T00:08:49.770Z,52.47
2023-07-20T00:11:54.302Z,52.05
2023-07-20T00:14:57.023Z,52.16
2023-07-20T00:18:00.283Z,52.50
2023-07-20T00:21:05.069Z,52.74
2023-07-20T00:24:08.230Z,52.88
2023-07-20T00:27:10.861Z,52.83
2023-07-20T00:30:14.403Z,52.75
2023-07-20T00:33:18.362Z,52.76
2023-07-20T00:36:21.905Z,53.01
2023-07-20T00:39:25.148Z,52.98
2023-07-20T00:42:28.492Z,52.87
2023-07-20T00:45:32.452Z,52.89
2023-07-20T00:48:35.684Z,52.91
2023-07-20T00:51:39.122Z,52.80
2023-07-20T00:54:43.091Z,52.69
2023-07-20T00:57:45.812Z,53.10
2023-07-20T01:00:49.374Z,53.24
2023-07-20T01:03:51.943Z,52.24
2023-07-20T01:07:04.106Z,52.80
2023-07-20T01:10:25.072Z,53.28
2023-07-20T01:13:29.209Z,53.17
2023-07-20T01:16:31.906Z,53.29
2023-07-20T01:19:35.297Z,53.17
2023-07-20T01:23:00.008Z,53.24
2023-07-20T01:26:33.842Z,53.17
2023-07-20T01:30:02.827Z,53.30
2023-07-20T01:33:07.663Z,53.19
2023-07-20T01:36:11.757Z,53.29
2023-07-20T01:39:15.676Z,53.43
2023-07-20T01:42:18.593Z,53.30
2023-07-20T01:45:21.773Z,53.03
2023-07-20T01:48:24.342Z,53.14
2023-07-20T01:51:27.559Z,53.37
2023-07-20T01:54:30.423Z,53.03
2023-07-20T01:57:33.605Z,53.25
2023-07-20T02:00:38.521Z,53.42
2023-07-20T02:03:41.640Z,53.70
2023-07-20T02:06:44.177Z,53.75
2023-07-20T02:09:47.780Z,53.53
2023-07-20T02:12:50.385Z,53.84
2023-07-20T02:15:53.563Z,53.93
2023-07-20T02:18:58.093Z,54.29
2023-07-20T02:22:01.455Z,54.54
2023-07-20T02:25:08.277Z,54.75
2023-07-20T02:28:14.811Z,54.90
2023-07-20T02:31:17.479Z,55.08
2023-07-20T02:34:20.714Z,55.17
2023-07-20T02:37:23.331Z,55.31
2023-07-20T02:40:26.506Z,55.31
2023-07-20T02:43:29.705Z,55.39
2023-07-20T02:46:33.125Z,55.48
2023-07-20T02:49:36.568Z,54.89
2023-07-20T02:52:39.716Z,55.22
2023-07-20T02:55:42.214Z,55.41
2023-07-20T02:58:47.181Z,55.31
2023-07-20T03:01:50.124Z,55.22
2023-07-20T03:04:53.400Z,55.24
2023-07-20T03:07:57.283Z,54.85
2023-07-20T03:11:00.441Z,55.01
2023-07-20T03:14:05.523Z,55.17
2023-07-20T03:17:09.880Z,55.27
2023-07-20T03:20:13.931Z,55.16
2023-07-20T03:23:17.998Z,54.74
2023-07-20T03:26:21.209Z,54.12
2023-07-20T03:29:25.672Z,53.62
2023-07-20T03:32:28.850Z,53.38
2023-07-20T03:35:32.310Z,53.28
2023-07-20T03:38:34.949Z,52.79
2023-07-20T03:41:38.188Z,51.86
2023-07-20T03:44:40.789Z,51.76
2023-07-20T03:47:45.842Z,51.23
2023-07-20T03:50:49.860Z,50.27
2023-07-20T03:53:53.073Z,50.14
2023-07-20T03:56:55.977Z,49.81
2023-07-20T03:59:59.229Z,49.92
2023-07-20T04:03:02.311Z,49.41
2023-07-20T04:06:05.608Z,49.03
2023-07-20T04:09:08.223Z,49.27
2023-07-20T04:12:11.391Z,49.67
2023-07-20T04:15:15.327Z,49.57
2023-07-20T04:18:18.526Z,50.03
2023-07-20T04:21:21.053Z,49.75
2023-07-20T04:24:24.235Z,49.74
2023-07-20T04:27:27.498Z,49.20
2023-07-20T04:30:30.621Z,49.09
2023-07-20T04:33:35.534Z,49.05
2023-07-20T04:36:38.954Z,49.02
2023-07-20T04:39:41.881Z,48.58
2023-07-20T04:42:45.319Z,48.72
2023-07-20T04:45:48.222Z,49.00
2023-07-20T04:48:51.475Z,48.14
2023-07-20T04:51:54.506Z,47.95
2023-07-20T04:54:57.985Z,47.08
2023-07-20T04:58:02.425Z,46.45
2023-07-20T05:01:05.946Z,45.92
2023-07-20T05:04:09.524Z,46.06
2023-07-20T05:07:12.707Z,45.82
2023-07-20T05:10:15.364Z,45.39
2023-07-20T05:13:18.607Z,44.52
2023-07-20T05:16:21.541Z,45.15
2023-07-20T05:19:26.470Z,44.44
2023-07-20T05:22:29.408Z,45.01
2023-07-20T05:25:34.406Z,44.93
2023-07-20T05:28:37.364Z,44.31
2023-07-20T05:31:40.814Z,43.94
2023-07-20T05:34:55.772Z,43.01
2023-07-20T05:37:59.219Z,42.74
2023-07-20T05:41:11.480Z,42.59
2023-07-20T05:44:19.095Z,43.01
2023-07-20T05:47:22.817Z,43.78
2023-07-20T05:50:26.440Z,44.16
2023-07-20T05:53:29.044Z,43.45
2023-07-20T05:56:33.643Z,44.03
2023-07-20T05:59:36.748Z,42.66
2023-07-20T06:02:40.898Z,42.40
2023-07-20T06:05:44.523Z,42.11
2023-07-20T06:08:47.456Z,42.78
2023-07-20T06:11:50.744Z,41.19
2023-07-20T06:14:53.971Z,41.28
2023-07-20T06:17:59.439Z,42.68
2023-07-20T06:21:02.707Z,41.76
2023-07-20T06:24:06.934Z,41.73
2023-07-20T06:27:09.837Z,42.38
2023-07-20T06:30:13.310Z,42.35
2023-07-20T06:33:16.364Z,41.86
2023-07-20T06:36:20.068Z,41.57
2023-07-20T06:43:48.583Z,41.22
2023-07-20T06:45:56.425Z,41.30
2023-07-20T06:52:05.642Z,40.67
2023-07-20T06:55:09.243Z,40.25
2023-07-20T06:58:15.259Z,40.62
2023-07-20T07:01:18.419Z,39.37
2023-07-20T07:04:21.488Z,39.57
2023-07-20T07:07:27.547Z,38.96
2023-07-20T07:10:30.794Z,35.85
2023-07-20T07:13:35.987Z,35.04
2023-07-20T07:16:39.594Z,36.36
2023-07-20T07:19:43.307Z,34.54
2023-07-20T07:22:46.921Z,35.48
2023-07-20T07:25:50.390Z,35.29
2023-07-20T07:28:55.842Z,33.94
2023-07-20T07:31:59.273Z,34.61
2023-07-20T07:35:02.155Z,32.79
2023-07-20T07:38:20.926Z,34.21
2023-07-20T07:41:29.134Z,33.19
2023-07-20T07:44:32.048Z,32.19
2023-07-20T07:47:34.927Z,32.53
2023-07-20T07:50:38.383Z,30.70
2023-07-20T07:53:41.337Z,30.01
2023-07-20T07:56:45.711Z,30.79
2023-07-20T07:59:48.639Z,30.59
2023-07-20T08:02:52.302Z,30.59
2023-07-20T08:06:00.148Z,28.74
2023-07-20T08:09:03.272Z,28.47
2023-07-20T08:12:06.982Z,28.50
2023-07-20T08:15:12.422Z,26.65
2023-07-20T08:18:15.677Z,26.40
2023-07-20T08:21:18.592Z,26.04
2023-07-20T08:24:21.975Z,25.28
2023-07-20T08:27:24.547Z,26.02
2023-07-20T08:30:27.686Z,24.66
2023-07-20T08:33:34.509Z,24.67
2023-07-20T08:36:38.319Z,23.97
2023-07-20T08:39:40.975Z,23.40
2023-07-20T08:42:45.552Z,23.83
2023-07-20T08:45:49.780Z,22.74
2023-07-20T08:48:53.834Z,21.09
2023-07-20T08:51:57.123Z,22.25
2023-07-20T08:55:00.251Z,20.90
2023-07-20T08:58:05.381Z,20.84
2023-07-20T09:01:09.361Z,21.41
2023-07-20T09:04:12.557Z,22.81
2023-07-20T09:07:16.983Z,23.58
2023-07-20T09:10:22.373Z,24.41
2023-07-20T09:13:26.832Z,24.61
2023-07-20T09:16:31.014Z,24.17
2023-07-20T09:19:35.332Z,23.56
2023-07-20T09:22:42.422Z,22.60
2023-07-20T09:25:47.845Z,22.37
2023-07-20T09:28:56.182Z,22.81
2023-07-20T09:32:01.914Z,23.56
2023-07-20T09:47:31.869Z,26.82
2023-07-20T09:50:40.370Z,26.92
2023-07-20T09:53:43.053Z,27.26
2023-07-20T09:56:48.464Z,27.88
2023-07-20T09:59:51.083Z,27.79
2023-07-20T10:02:57.227Z,27.18
2023-07-20T10:06:24.883Z,27.47
2023-07-20T10:09:28.650Z,27.11
2023-07-20T10:12:32.127Z,26.94
2023-07-20T10:15:40.650Z,26.81
2023-07-20T10:19:17.952Z,25.08
2023-07-20T10:22:28.531Z,24.07
2023-07-20T10:25:32.724Z,25.40
2023-07-20T10:28:35.749Z,25.47
2023-07-20T10:31:40.883Z,26.20
2023-07-20T10:34:43.829Z,25.36
2023-07-20T10:37:52.281Z,23.98
2023-07-20T10:40:56.558Z,23.89
2023-07-20T10:44:05.329Z,24.53
2023-07-20T10:47:13.517Z,23.93
2023-07-20T10:50:16.807Z,23.97
2023-07-20T10:53:20.095Z,24.79
2023-07-20T10:56:24.955Z,25.49
2023-07-20T10:59:30.796Z,25.10
2023-07-20T11:02:43.437Z,24.96
2023-07-20T11:05:46.442Z,25.85
2023-07-20T11:08:51.158Z,26.54
2023-07-20T11:12:17.423Z,26.15
2023-07-20T11:15:20.399Z,26.25
2023-07-20T11:18:26.971Z,25.32
2023-07-20T11:21:31.523Z,25.59
2023-07-20T11:24:34.881Z,25.34
2023-07-20T11:27:46.812Z,24.40
2023-07-20T11:30:53.162Z,23.60
2023-07-20T11:33:56.438Z,22.22
2023-07-20T11:37:15.191Z,21.14
2023-07-20T11:40:18.324Z,20.46
2023-07-20T11:43:24.336Z,20.20
2023-07-20T11:46:29.613Z,19.52
2023-07-20T11:49:38.722Z,19.34
2023-07-20T11:52:41.986Z,17.97
2023-07-20T11:55:46.515Z,18.33
2023-07-20T11:58:49.417Z,18.08
2023-07-20T12:01:53.989Z,18.90
2023-07-20T12:04:58.509Z,18.40
2023-07-20T12:08:01.653Z,18.65
2023-07-20T12:11:04.614Z,18.39
2023-07-20T12:14:17.118Z,19.20
2023-07-20T12:17:21.229Z,19.38
2023-07-20T12:20:30.850Z,18.38
2023-07-20T12:23:41.581Z,18.65
2023-07-20T12:26:44.897Z,18.46
2023-07-20T12:29:47.941Z,18.77
2023-07-20T12:32:52.744Z,18.28
2023-07-20T12:35:57.420Z,18.62
2023-07-20T12:39:00.506Z,18.18
2023-07-20T12:42:03.612Z,18.76
2023-07-20T12:45:07.258Z,17.16
2023-07-20T12:48:10.813Z,16.89
2023-07-20T12:51:13.735Z,17.71
2023-07-20T12:54:16.653Z,17.96
2023-07-20T12:57:19.577Z,18.70
2023-07-20T13:00:25.731Z,18.49
2023-07-20T13:03:31.866Z,19.31
2023-07-20T13:06:37.251Z,18.69
2023-07-20T13:09:40.436Z,18.48
2023-07-20T13:12:43.551Z,18.29
2023-07-20T13:15:47.648Z,18.30
2023-07-20T13:18:50.840Z,18.61
2023-07-20T13:21:53.718Z,18.56
2023-07-20T13:24:56.601Z,18.85
2023-07-20T13:27:59.392Z,19.07
2023-07-20T13:31:02.281Z,19.27
2023-07-20T13:34:08.297Z,19.63
2023-07-20T13:37:14.672Z,20.07
2023-07-20T13:40:19.723Z,19.95
2023-07-20T13:43:22.515Z,20.01
2023-07-20T13:49:36.500Z,20.35
2023-07-20T13:52:49.199Z,20.54
2023-07-20T13:58:59.519Z,21.04
2023-07-20T14:08:24.018Z,21.17
2023-07-20T14:14:33.603Z,21.52
2023-07-20T14:17:38.498Z,21.84
2023-07-20T14:20:41.307Z,22.02
2023-07-20T14:23:48.669Z,22.28
2023-07-20T14:26:52.302Z,21.97
2023-07-20T14:29:56.936Z,21.99
2023-07-20T14:32:59.647Z,21.46
2023-07-20T14:36:04.897Z,21.42
2023-07-20T14:39:07.747Z,22.11
2023-07-20T14:42:10.992Z,22.54
2023-07-20T14:45:13.632Z,22.70
2023-07-20T14:48:17.163Z,22.79
2023-07-20T14:51:20.128Z,22.80
2023-07-20T14:54:23.380Z,22.85
2023-07-20T14:57:25.934Z,22.89
2023-07-20T15:00:29.186Z,23.37
2023-07-20T15:03:34.959Z,23.57
2023-07-20T15:06:38.359Z,23.38
2023-07-20T15:09:41.004Z,23.46
2023-07-20T15:12:44.353Z,23.50
2023-07-20T15:15:47.080Z,24.03
2023-07-20T15:18:50.469Z,24.15
2023-07-20T15:21:53.071Z,24.68
2023-07-20T15:24:56.402Z,24.92
2023-07-20T15:27:59.142Z,25.09
2023-07-20T15:31:04.338Z,25.20
2023-07-20T15:34:07.312Z,25.14
2023-07-20T15:37:11.598Z,25.40
2023-07-20T15:40:14.359Z,25.61
2023-07-20T15:46:35.345Z,26.18
2023-07-20T15:49:38.757Z,26.54
2023-07-20T15:52:42.987Z,26.46
2023-07-20T15:55:46.601Z,26.37
2023-07-20T15:58:49.225Z,25.75
2023-07-20T16:01:53.359Z,26.23
2023-07-20T16:04:57.915Z,26.49
2023-07-20T16:08:01.006Z,26.80
2023-07-20T16:11:04.464Z,26.92
2023-07-20T16:14:08.146Z,27.13
2023-07-20T16:17:11.193Z,26.84
2023-07-20T16:20:14.153Z,26.87
2023-07-20T16:23:16.988Z,25.97
2023-07-20T16:26:21.655Z,26.84
2023-07-20T16:29:27.305Z,27.48
2023-07-20T16:32:31.957Z,27.74
2023-07-20T16:38:47.628Z,27.83
2023-07-20T16:44:56.677Z,27.73
2023-07-20T16:47:59.756Z,27.85
2023-07-20T16:51:03.769Z,28.02
2023-07-20T16:54:08.915Z,28.26
2023-07-20T16:57:11.918Z,29.13
2023-07-20T17:00:18.198Z,28.86
2023-07-20T17:03:21.370Z,28.66
2023-07-20T17:06:24.745Z,28.73
2023-07-20T17:09:31.891Z,28.76
2023-07-20T17:12:35.324Z,28.75
2023-07-20T17:15:41.037Z,29.05
2023-07-20T17:18:44.288Z,28.97
2023-07-20T17:21:47.177Z,29.06
2023-07-20T17:31:27.380Z,29.27
2023-07-20T17:34:30.565Z,30.09
2023-07-20T17:40:39.445Z,30.08
2023-07-20T17:43:42.523Z,30.06
2023-07-20T17:49:58.333Z,31.31
2023-07-20T17:53:01.435Z,30.73
2023-07-20T17:56:04.677Z,31.13
2023-07-20T17:59:08.775Z,31.04
2023-07-20T18:02:11.805Z,31.92
2023-07-20T18:05:15.791Z,31.88
2023-07-20T18:08:18.428Z,31.65
2023-07-20T18:11:23.422Z,31.86
2023-07-20T18:14:26.568Z,32.44
2023-07-20T18:17:30.081Z,32.99
2023-07-20T18:20:34.152Z,33.18
2023-07-20T18:23:37.275Z,32.94
2023-07-20T18:26:42.291Z,33.49
2023-07-20T18:29:45.742Z,33.76
2023-07-20T18:32:48.651Z,33.57
2023-07-20T18:35:54.896Z,33.56
2023-07-20T18:38:57.456Z,33.47
2023-07-20T18:42:00.731Z,34.15
2023-07-20T18:45:03.606Z,34.05
2023-07-20T18:48:06.717Z,34.33
2023-07-20T18:51:09.417Z,34.60
2023-07-20T18:54:14.625Z,34.78
2023-07-20T18:57:25.265Z,35.11
2023-07-20T19:01:07.924Z,35.65
2023-07-20T19:04:18.762Z,35.23
2023-07-20T19:07:21.557Z,35.40
2023-07-20T19:10:28.723Z,35.59
2023-07-20T19:13:49.492Z,35.86
2023-07-20T19:17:14.162Z,35.85
2023-07-20T19:20:19.533Z,36.10
2023-07-20T19:23:30.409Z,35.74
2023-07-20T19:26:43.352Z,35.92
2023-07-20T19:29:49.312Z,36.46
2023-07-20T19:32:52.651Z,36.17
2023-07-20T19:35:57.084Z,36.33
2023-07-20T19:39:03.493Z,36.18
2023-07-20T19:42:12.845Z,36.14
2023-07-20T19:45:35.605Z,36.37
2023-07-20T19:48:38.869Z,36.20
2023-07-20T19:51:57.542Z,36.27
2023-07-20T19:55:13.040Z,36.20
2023-07-20T19:58:22.170Z,36.33
2023-07-20T20:07:48.051Z,40.29
2023-07-20T20:11:18.022Z,40.20
2023-07-20T20:14:28.171Z,40.01
2023-07-20T20:21:11.007Z,38.02
2023-07-20T20:24:37.731Z,38.90
2023-07-20T20:27:40.767Z,38.46
2023-07-20T20:30:53.593Z,38.20
2023-07-20T20:34:37.030Z,38.26
2023-07-20T20:37:43.397Z,37.82
2023-07-20T20:40:50.240Z,38.26
2023-07-20T20:43:53.651Z,38.67
2023-07-20T20:47:01.620Z,38.25
2023-07-20T20:50:05.870Z,38.74
2023-07-20T20:53:10.418Z,38.05
2023-07-20T20:56:13.812Z,37.96
2023-07-20T20:59:38.674Z,37.52
2023-07-20T21:06:57.513Z,38.30
2023-07-20T21:26:25.723Z,38.33
2023-07-20T21:29:31.994Z,38.20
2023-07-20T21:32:35.131Z,38.50
2023-07-20T21:35:44.757Z,38.59
2023-07-20T21:38:55.460Z,38.82
2023-07-20T21:42:02.046Z,39.08
2023-07-20T21:45:05.553Z,39.32
2023-07-20T21:48:21.446Z,39.28
2023-07-20T21:51:28.520Z,39.97
2023-07-20T21:54:32.125Z,40.09
2023-07-20T21:57:37.441Z,40.04
2023-07-20T22:00:57.050Z,40.49
2023-07-20T22:04:01.844Z,40.43
2023-07-20T22:07:20.318Z,40.41
2023-07-20T22:10:27.870Z,40.22
2023-07-20T22:17:08.172Z,40.56
2023-07-20T22:50:08.295Z,41.76
2023-07-20T22:53:11.767Z,41.85
2023-07-20T22:56:14.357Z,42.04
2023-07-20T22:59:17.610Z,42.27
2023-07-20T23:02:20.421Z,42.27
2023-07-20T23:05:23.803Z,42.18
2023-07-20T23:08:26.515Z,42.41
2023-07-20T23:11:29.637Z,42.52
2023-07-20T23:14:32.655Z,42.63
2023-07-20T23:17:35.869Z,42.55
2023-07-20T23:20:38.450Z,42.64
2023-07-20T23:23:44.557Z,42.92
2023-07-20T23:26:47.161Z,43.07
2023-07-20T23:29:50.474Z,43.16
2023-07-20T23:32:54.665Z,43.10
2023-07-20T23:36:09.300Z,43.08
2023-07-20T23:39:14.617Z,43.29
2023-07-20T23:42:18.872Z,43.46
2023-07-20T23:45:29.741Z,43.52
2023-07-20T23:48:41.549Z,43.56
2023-07-20T23:51:47.265Z,43.56
2023-07-20T23:54:51.203Z,43.52
2023-07-20T23:57:53.782Z,43.73
